Portada
METAR-TAF:

METAR-TAF

Aeropuertos :

Aeropuerto de Sevilla

Sevilla, España

latitud: 37-25N, longitud: 005-54W, altitud: 34 m

Observación

El informe se hizo hace 36 minutos, a las 01:30 UTC
Viento 7 kt del sur
Temperatura 20°C
Humedad 78%
Presión 1015 hPa
Visibilidad 10 km o más
sin nubes por debajo de 1500 m y sin presencia de cumulonimbus.

METAR: LEZL 190130Z 19007KT CAVOK 20/16 Q1015 NOSIG

Hora: 04:06 (02:06 UTC)

Pronóstico

El informe se hizo hace 6 horas y 6 minutos, a las 20:00 UTC
Pronóstico válido del 18 a las 21 UTC al 19 a las 21 UTC
Viento 8 kt del suroeste
Visibilidad 10 km o más
sin nubes por debajo de 1500 m y sin presencia de cumulonimbus.

TAF: LEZL 182000Z 1821/1921 23008KT CAVOK TX35/1915Z TN18/1905Z

Observaciones y pronósticos meteorológicos de más de 4000 aeropuertos (mensajes METAR y TAF).

Los puntos amarillos y rojos representan las estaciones disponibles.

Ponga el ratón en el punto deseado para ver el nombre de la estación.

Haga clic para ver las observaciones y los pronósticos meteorológicos.

Para cambiar el mapa : haga clic en los botones verdes con una cruz de color negro para hacer un zoom, en el botón verde con un guión para alejar o en las flechas verdes para mapas adyacentes.


METAR-TAF: